Time;durP1;ratioP1;P1;durP2;ratioP2;P2;SDS_P1;SDS_P2;PMS_P1;PMS_P2;Temp;Humidity;BMP_temperature;BMP_pressure;BME280_temperature;BME280_humidity;BME280_pressure;Samples;Min_cycle;Max_cycle;Signal;HPM_P1;HPM_P2
2021/07/09 00:01:53;;;;;;;0.50;0.50;;;;;;;;;;5091468;28;20438;-54
2021/07/09 00:04:21;;;;;;;1.05;0.68;;;;;;;;;;5088384;28;20028;-53
2021/07/09 00:06:48;;;;;;;0.60;0.60;;;;;;;;;;5090842;28;20066;-53
2021/07/09 00:09:15;;;;;;;1.27;0.60;;;;;;;;;;5100985;28;20104;-53
2021/07/09 00:11:44;;;;;;;0.52;0.52;;;;;;;;;;5088620;28;20040;-53
2021/07/09 00:14:11;;;;;;;1.00;0.60;;;;;;;;;;5083842;28;20146;-53
2021/07/09 00:16:39;;;;;;;0.60;0.57;;;;;;;;;;5083991;28;20044;-53
2021/07/09 00:19:10;;;;;;;0.60;0.60;;;;;;;;;;5081957;28;20108;-53
2021/07/09 00:21:37;;;;;;;0.90;0.70;;;;;;;;;;5091108;28;20040;-53
2021/07/09 00:24:04;;;;;;;0.50;0.50;;;;;;;;;;5069550;28;20044;-53
2021/07/09 00:26:31;;;;;;;0.60;0.60;;;;;;;;;;5082314;28;20089;-52
2021/07/09 00:28:59;;;;;;;0.60;0.60;;;;;;;;;;5085937;28;20480;-53
2021/07/09 00:31:26;;;;;;;0.60;0.60;;;;;;;;;;5087889;28;20086;-53
2021/07/09 00:33:53;;;;;;;0.73;0.73;;;;;;;;;;5104540;28;20430;-53
2021/07/09 00:36:19;;;;;;;0.60;0.60;;;;;;;;;;5086148;28;20036;-52
2021/07/09 00:38:46;;;;;;;0.70;0.70;;;;;;;;;;5074077;28;20043;-53
2021/07/09 00:41:13;;;;;;;0.82;0.60;;;;;;;;;;5082459;28;20112;-53
2021/07/09 00:43:39;;;;;;;0.70;0.70;;;;;;;;;;5087712;28;20055;-53
2021/07/09 00:46:06;;;;;;;1.00;0.50;;;;;;;;;;5088929;28;20071;-53
2021/07/09 00:48:34;;;;;;;1.30;0.60;;;;;;;;;;5087774;28;20036;-53
2021/07/09 00:51:08;;;;;;;1.20;0.60;;;;;;;;;;5079759;28;20052;-52
2021/07/09 00:53:35;;;;;;;0.77;0.60;;;;;;;;;;5090836;28;20457;-53
2021/07/09 00:56:02;;;;;;;1.08;0.57;;;;;;;;;;5084542;28;20044;-53
2021/07/09 00:58:32;;;;;;;0.60;0.60;;;;;;;;;;5070643;28;20044;-53
2021/07/09 01:00:59;;;;;;;0.60;0.60;;;;;;;;;;5087727;28;20048;-53
2021/07/09 01:03:26;;;;;;;0.93;0.60;;;;;;;;;;5088361;28;20123;-52
2021/07/09 01:05:52;;;;;;;1.27;0.60;;;;;;;;;;5088475;28;20074;-53
2021/07/09 01:08:19;;;;;;;0.60;0.60;;;;;;;;;;5088903;28;20067;-53
2021/07/09 01:10:46;;;;;;;1.05;0.60;;;;;;;;;;5080148;28;20071;-53
2021/07/09 01:13:13;;;;;;;0.60;0.60;;;;;;;;;;5089541;28;20031;-52
2021/07/09 01:15:40;;;;;;;1.55;0.60;;;;;;;;;;5076912;28;20043;-52
2021/07/09 01:18:07;;;;;;;0.57;0.57;;;;;;;;;;5090711;28;20081;-52
2021/07/09 01:20:33;;;;;;;1.52;0.60;;;;;;;;;;5087304;28;20036;-53
2021/07/09 01:23:01;;;;;;;0.60;0.60;;;;;;;;;;5081070;28;20391;-53
2021/07/09 01:25:29;;;;;;;0.60;0.60;;;;;;;;;;5089179;28;20036;-53
2021/07/09 01:28:01;;;;;;;3.10;0.60;;;;;;;;;;5080838;28;20044;-52
2021/07/09 01:30:28;;;;;;;0.60;0.60;;;;;;;;;;5088867;28;20064;-53
2021/07/09 01:32:55;;;;;;;1.20;0.60;;;;;;;;;;5086201;28;20040;-53
2021/07/09 01:35:26;;;;;;;0.60;0.60;;;;;;;;;;5083261;28;20075;-53
2021/07/09 01:37:55;;;;;;;0.80;0.60;;;;;;;;;;5084113;28;20064;-52
2021/07/09 01:40:23;;;;;;;0.60;0.60;;;;;;;;;;5085152;28;20036;-52
2021/07/09 01:42:49;;;;;;;0.88;0.60;;;;;;;;;;5094509;28;20538;-52
2021/07/09 01:45:16;;;;;;;0.60;0.60;;;;;;;;;;5092028;28;20589;-53
2021/07/09 01:47:43;;;;;;;0.70;0.70;;;;;;;;;;5078626;28;20127;-53
2021/07/09 01:50:10;;;;;;;0.68;0.68;;;;;;;;;;5092649;28;20032;-53
2021/07/09 01:52:36;;;;;;;0.88;0.60;;;;;;;;;;5090047;28;20036;-52
2021/07/09 01:55:04;;;;;;;0.70;0.70;;;;;;;;;;5092746;28;20063;-51
2021/07/09 01:57:32;;;;;;;0.65;0.65;;;;;;;;;;5090980;28;20537;-53
2021/07/09 01:59:59;;;;;;;1.25;0.70;;;;;;;;;;5091391;28;20446;-53
2021/07/09 02:02:26;;;;;;;0.70;0.70;;;;;;;;;;5081752;28;20052;-53
2021/07/09 02:04:55;;;;;;;0.80;0.80;;;;;;;;;;5085062;28;20536;-53
2021/07/09 02:07:22;;;;;;;2.25;1.15;;;;;;;;;;5092743;28;20123;-52
2021/07/09 02:09:50;;;;;;;1.13;0.70;;;;;;;;;;5097269;28;20036;-52
2021/07/09 02:12:19;;;;;;;1.55;0.73;;;;;;;;;;5093922;28;20517;-53
2021/07/09 02:14:46;;;;;;;0.70;0.70;;;;;;;;;;5086350;28;20123;-53
2021/07/09 02:17:14;;;;;;;0.70;0.70;;;;;;;;;;5092714;28;20160;-53
2021/07/09 02:19:41;;;;;;;0.68;0.68;;;;;;;;;;5089071;28;20029;-53
2021/07/09 02:22:09;;;;;;;0.80;0.80;;;;;;;;;;5094078;28;20491;-52
2021/07/09 02:24:37;;;;;;;0.85;0.80;;;;;;;;;;5090824;28;20079;-52
2021/07/09 02:27:04;;;;;;;0.80;0.80;;;;;;;;;;5089555;28;20036;-52
2021/07/09 02:29:31;;;;;;;0.70;0.70;;;;;;;;;;5089741;28;20040;-51
2021/07/09 02:32:00;;;;;;;0.70;0.70;;;;;;;;;;5084824;28;20068;-53
2021/07/09 02:34:30;;;;;;;0.70;0.70;;;;;;;;;;5092979;28;20094;-53
2021/07/09 02:36:58;;;;;;;0.88;0.73;;;;;;;;;;5089447;28;20055;-52
2021/07/09 02:39:25;;;;;;;0.82;0.70;;;;;;;;;;5074063;28;20067;-52
2021/07/09 02:41:56;;;;;;;1.35;0.80;;;;;;;;;;5091983;28;20044;-52
2021/07/09 02:44:23;;;;;;;0.82;0.82;;;;;;;;;;5083866;28;20118;-53
2021/07/09 02:46:50;;;;;;;2.55;0.75;;;;;;;;;;5088534;28;20070;-55
2021/07/09 02:49:17;;;;;;;0.85;0.85;;;;;;;;;;5089357;28;20044;-52
2021/07/09 02:51:45;;;;;;;0.70;0.70;;;;;;;;;;5090874;28;20055;-52
2021/07/09 02:54:12;;;;;;;2.45;0.80;;;;;;;;;;5092688;28;20123;-53
2021/07/09 02:56:39;;;;;;;0.70;0.70;;;;;;;;;;5090912;28;20036;-53
2021/07/09 02:59:09;;;;;;;0.70;0.70;;;;;;;;;;5086902;28;20489;-53
2021/07/09 03:01:40;;;;;;;0.70;0.70;;;;;;;;;;5088103;28;20044;-53
2021/07/09 03:04:11;;;;;;;0.80;0.80;;;;;;;;;;5080427;28;20040;-53
2021/07/09 03:06:38;;;;;;;2.63;0.70;;;;;;;;;;5084294;28;20105;-53
2021/07/09 03:09:06;;;;;;;1.30;0.82;;;;;;;;;;5088909;28;20036;-53
2021/07/09 03:11:33;;;;;;;1.75;0.80;;;;;;;;;;5092179;28;20123;-53
2021/07/09 03:14:00;;;;;;;0.77;0.70;;;;;;;;;;5093590;28;20063;-51
2021/07/09 03:16:27;;;;;;;0.70;0.70;;;;;;;;;;5093778;28;20036;-53
2021/07/09 03:18:53;;;;;;;0.80;0.80;;;;;;;;;;5089538;28;20040;-53
2021/07/09 03:21:20;;;;;;;1.27;0.70;;;;;;;;;;5089327;28;20032;-52
2021/07/09 03:23:47;;;;;;;1.65;0.73;;;;;;;;;;5090153;28;20042;-52
2021/07/09 03:26:14;;;;;;;1.50;0.80;;;;;;;;;;5090869;28;20094;-53
2021/07/09 03:28:41;;;;;;;1.55;0.70;;;;;;;;;;5089724;28;20071;-53
2021/07/09 03:31:08;;;;;;;0.80;0.80;;;;;;;;;;5085903;28;20037;-53
2021/07/09 03:33:35;;;;;;;1.17;1.13;;;;;;;;;;5084845;28;20808;-53
2021/07/09 03:36:03;;;;;;;0.80;0.80;;;;;;;;;;5082137;28;20474;-53
2021/07/09 03:38:32;;;;;;;1.85;0.80;;;;;;;;;;5084526;28;20611;-52
2021/07/09 03:40:59;;;;;;;0.70;0.70;;;;;;;;;;5081356;28;20725;-53
2021/07/09 03:43:25;;;;;;;0.90;0.90;;;;;;;;;;5091331;28;20173;-54
2021/07/09 03:45:52;;;;;;;1.85;0.80;;;;;;;;;;5089181;28;20047;-53
2021/07/09 03:48:19;;;;;;;0.70;0.70;;;;;;;;;;5077460;28;20044;-54
2021/07/09 03:50:46;;;;;;;1.20;0.90;;;;;;;;;;5088838;28;20130;-52
2021/07/09 03:53:12;;;;;;;0.95;0.80;;;;;;;;;;5091550;28;20483;-53
2021/07/09 03:55:39;;;;;;;1.67;0.80;;;;;;;;;;5075617;28;20119;-53
2021/07/09 03:58:06;;;;;;;0.70;0.70;;;;;;;;;;5086763;28;20106;-54
2021/07/09 04:00:32;;;;;;;0.70;0.70;;;;;;;;;;5073861;28;20086;-53
2021/07/09 04:02:59;;;;;;;0.70;0.70;;;;;;;;;;5092279;28;20466;-52
2021/07/09 04:05:29;;;;;;;1.13;0.75;;;;;;;;;;5088383;28;20085;-52
2021/07/09 04:07:55;;;;;;;2.67;0.80;;;;;;;;;;5091797;28;20044;-53
2021/07/09 04:10:22;;;;;;;0.73;0.73;;;;;;;;;;5089037;28;20111;-53
2021/07/09 04:12:49;;;;;;;1.80;0.80;;;;;;;;;;5089321;28;20036;-54
2021/07/09 04:15:16;;;;;;;0.70;0.70;;;;;;;;;;5083039;28;20048;-53
2021/07/09 04:17:42;;;;;;;0.82;0.82;;;;;;;;;;5089983;28;20438;-53
2021/07/09 04:20:09;;;;;;;0.80;0.80;;;;;;;;;;5088911;28;20028;-54
2021/07/09 04:22:36;;;;;;;2.67;0.80;;;;;;;;;;5088050;28;20564;-53
2021/07/09 04:25:04;;;;;;;1.40;0.80;;;;;;;;;;5088772;28;20040;-53
2021/07/09 04:27:31;;;;;;;2.60;1.35;;;;;;;;;;5079763;28;20123;-53
2021/07/09 04:29:58;;;;;;;0.80;0.80;;;;;;;;;;5089081;28;20043;-53
2021/07/09 04:32:25;;;;;;;3.42;0.82;;;;;;;;;;5084846;28;20451;-53
2021/07/09 04:34:52;;;;;;;0.80;0.80;;;;;;;;;;5089331;28;20052;-53
2021/07/09 04:37:19;;;;;;;2.03;0.88;;;;;;;;;;5089820;28;20043;-54
2021/07/09 04:39:46;;;;;;;1.00;0.80;;;;;;;;;;5080576;28;20428;-53
2021/07/09 04:42:13;;;;;;;0.80;0.80;;;;;;;;;;5091175;28;20048;-53
2021/07/09 04:44:40;;;;;;;1.25;1.00;;;;;;;;;;5076779;28;20044;-53
2021/07/09 04:47:12;;;;;;;1.48;0.80;;;;;;;;;;5084696;28;20106;-53
2021/07/09 04:49:39;;;;;;;0.80;0.80;;;;;;;;;;5090196;28;20119;-52
2021/07/09 04:52:06;;;;;;;1.85;0.90;;;;;;;;;;5088804;28;20076;-53
2021/07/09 04:54:33;;;;;;;1.30;0.80;;;;;;;;;;5087970;28;20043;-53
2021/07/09 04:57:00;;;;;;;1.13;0.90;;;;;;;;;;5071643;28;20036;-53
2021/07/09 04:59:26;;;;;;;0.80;0.80;;;;;;;;;;5092088;28;20086;-52
2021/07/09 05:01:53;;;;;;;3.67;0.80;;;;;;;;;;5087889;28;20039;-53
2021/07/09 05:04:20;;;;;;;1.13;1.00;;;;;;;;;;5078484;28;20048;-53
2021/07/09 05:06:47;;;;;;;0.98;0.80;;;;;;;;;;5067921;28;20492;-53
2021/07/09 05:09:14;;;;;;;0.85;0.85;;;;;;;;;;5074669;28;20040;-53
2021/07/09 05:11:41;;;;;;;0.80;0.80;;;;;;;;;;5093412;28;20690;-53
2021/07/09 05:14:07;;;;;;;1.00;1.00;;;;;;;;;;5092760;28;20160;-53
2021/07/09 05:16:34;;;;;;;0.80;0.80;;;;;;;;;;5094463;28;20086;-53
2021/07/09 05:19:01;;;;;;;1.13;0.80;;;;;;;;;;5090441;28;20487;-53
2021/07/09 05:21:28;;;;;;;0.80;0.80;;;;;;;;;;5085554;28;20036;-53
2021/07/09 05:23:55;;;;;;;1.20;0.80;;;;;;;;;;5081939;28;20055;-58
2021/07/09 05:26:22;;;;;;;1.10;0.80;;;;;;;;;;5084010;28;20063;-59
2021/07/09 05:28:49;;;;;;;0.88;0.88;;;;;;;;;;5094077;28;20043;-59
2021/07/09 05:31:16;;;;;;;1.50;0.80;;;;;;;;;;5089927;28;20064;-59
2021/07/09 05:33:43;;;;;;;0.70;0.70;;;;;;;;;;5080391;28;20028;-59
2021/07/09 05:36:09;;;;;;;0.82;0.70;;;;;;;;;;5090517;28;20667;-58
2021/07/09 05:38:36;;;;;;;1.58;0.80;;;;;;;;;;5090747;28;20068;-59
2021/07/09 05:41:07;;;;;;;0.93;0.70;;;;;;;;;;5102118;28;20047;-59
2021/07/09 05:43:34;;;;;;;0.80;0.80;;;;;;;;;;5093209;28;20598;-59
2021/07/09 05:46:01;;;;;;;4.15;1.00;;;;;;;;;;5087737;28;20063;-59
2021/07/09 05:48:28;;;;;;;1.75;1.00;;;;;;;;;;5092407;28;20036;-59
2021/07/09 05:50:54;;;;;;;0.80;0.80;;;;;;;;;;5090136;28;20051;-59
2021/07/09 05:53:21;;;;;;;0.80;0.80;;;;;;;;;;5074847;28;20044;-59
2021/07/09 05:55:48;;;;;;;0.85;0.80;;;;;;;;;;5092135;28;20537;-59
2021/07/09 05:58:16;;;;;;;0.70;0.70;;;;;;;;;;5091271;28;20036;-59
2021/07/09 06:00:42;;;;;;;3.67;0.70;;;;;;;;;;5093937;28;20032;-59
2021/07/09 06:03:09;;;;;;;1.13;0.88;;;;;;;;;;5093021;28;20028;-59
2021/07/09 06:05:36;;;;;;;1.75;0.70;;;;;;;;;;5091490;28;20044;-59
2021/07/09 06:08:03;;;;;;;0.70;0.70;;;;;;;;;;5091463;28;20067;-59
2021/07/09 06:10:30;;;;;;;1.17;0.70;;;;;;;;;;5090955;28;20940;-59
2021/07/09 06:12:57;;;;;;;1.58;0.70;;;;;;;;;;5092755;28;20044;-59
2021/07/09 06:15:24;;;;;;;0.70;0.70;;;;;;;;;;5087641;28;20040;-58
2021/07/09 06:18:15;;;;;;;1.55;0.73;;;;;;;;;;5078385;28;20044;-59
2021/07/09 06:20:42;;;;;;;1.95;0.70;;;;;;;;;;5091336;28;20085;-59
2021/07/09 06:23:09;;;;;;;0.73;0.70;;;;;;;;;;5089809;28;20059;-59
2021/07/09 06:25:35;;;;;;;0.60;0.60;;;;;;;;;;5091065;28;20102;-59
2021/07/09 06:28:02;;;;;;;1.13;0.60;;;;;;;;;;5086207;28;20049;-59
2021/07/09 06:30:29;;;;;;;7.50;0.88;;;;;;;;;;5084794;28;20037;-58
2021/07/09 06:32:59;;;;;;;1.45;0.57;;;;;;;;;;5091883;28;20438;-58
2021/07/09 06:35:29;;;;;;;0.60;0.60;;;;;;;;;;5089047;28;20048;-59
2021/07/09 06:37:56;;;;;;;1.25;0.70;;;;;;;;;;5074412;28;20094;-58
2021/07/09 06:40:24;;;;;;;5.70;0.80;;;;;;;;;;5079762;28;20139;-58
2021/07/09 06:42:51;;;;;;;2.05;0.80;;;;;;;;;;5098857;28;20040;-59
2021/07/09 06:45:18;;;;;;;1.20;0.70;;;;;;;;;;5056954;28;20044;-59
2021/07/09 06:47:45;;;;;;;1.90;0.70;;;;;;;;;;5089712;28;20040;-59
2021/07/09 06:50:13;;;;;;;0.80;0.75;;;;;;;;;;5090429;28;20075;-59
2021/07/09 06:52:41;;;;;;;1.33;0.70;;;;;;;;;;5084108;28;20043;-59
2021/07/09 06:55:08;;;;;;;2.65;0.70;;;;;;;;;;5089521;28;20471;-59
2021/07/09 06:57:34;;;;;;;1.38;0.80;;;;;;;;;;5090966;28;20455;-59
2021/07/09 07:00:03;;;;;;;6.78;0.60;;;;;;;;;;5078812;28;20136;-59
2021/07/09 07:02:29;;;;;;;2.15;0.60;;;;;;;;;;5082052;28;20032;-59
2021/07/09 07:04:57;;;;;;;0.65;0.60;;;;;;;;;;5086903;28;20089;-59
2021/07/09 07:07:23;;;;;;;1.83;0.77;;;;;;;;;;5090962;28;20040;-59
2021/07/09 07:09:50;;;;;;;1.65;0.75;;;;;;;;;;5090639;28;20039;-59
2021/07/09 07:12:17;;;;;;;1.00;0.60;;;;;;;;;;5090175;28;20097;-58
2021/07/09 07:14:43;;;;;;;3.85;0.90;;;;;;;;;;5089976;28;20448;-59
2021/07/09 07:17:11;;;;;;;1.20;0.60;;;;;;;;;;5078383;28;20055;-59
2021/07/09 07:19:38;;;;;;;3.75;0.70;;;;;;;;;;5086742;28;20078;-59
2021/07/09 07:22:04;;;;;;;1.17;0.70;;;;;;;;;;5090223;28;20066;-59
2021/07/09 07:24:31;;;;;;;0.65;0.60;;;;;;;;;;5091825;28;20058;-59
2021/07/09 07:26:58;;;;;;;0.57;0.57;;;;;;;;;;5090127;28;20044;-59
2021/07/09 07:29:25;;;;;;;3.00;0.70;;;;;;;;;;5090630;28;20059;-59
2021/07/09 07:31:52;;;;;;;4.25;0.57;;;;;;;;;;5089461;28;20071;-59
2021/07/09 07:34:19;;;;;;;0.50;0.50;;;;;;;;;;5089597;28;20036;-59
2021/07/09 07:36:46;;;;;;;2.70;0.93;;;;;;;;;;5090612;28;20036;-59
2021/07/09 07:39:13;;;;;;;3.50;0.60;;;;;;;;;;5088793;28;20032;-59
2021/07/09 07:41:40;;;;;;;2.40;0.50;;;;;;;;;;5091110;28;20071;-59
2021/07/09 07:44:06;;;;;;;2.63;0.60;;;;;;;;;;5089735;28;20035;-59
2021/07/09 07:46:33;;;;;;;3.45;0.60;;;;;;;;;;5088085;28;20072;-59
2021/07/09 07:49:01;;;;;;;4.22;0.60;;;;;;;;;;5079541;28;20036;-59
2021/07/09 07:51:28;;;;;;;3.13;0.60;;;;;;;;;;5082722;28;20119;-59
2021/07/09 07:53:54;;;;;;;1.25;0.50;;;;;;;;;;5074368;28;20041;-59
2021/07/09 07:56:21;;;;;;;2.40;0.60;;;;;;;;;;5089630;28;20071;-59
2021/07/09 07:58:51;;;;;;;1.85;0.52;;;;;;;;;;5089007;28;20499;-59
2021/07/09 08:01:18;;;;;;;1.45;1.35;;;;;;;;;;5091606;28;20040;-59
2021/07/09 08:03:45;;;;;;;1.52;0.70;;;;;;;;;;5085704;28;20131;-59
2021/07/09 08:06:14;;;;;;;1.50;0.60;;;;;;;;;;5089334;28;20146;-59
2021/07/09 08:08:43;;;;;;;3.28;0.50;;;;;;;;;;5081862;28;20529;-59
2021/07/09 08:11:11;;;;;;;0.68;0.47;;;;;;;;;;5087255;28;20040;-60
2021/07/09 08:13:39;;;;;;;4.15;0.40;;;;;;;;;;5091344;28;20422;-59
2021/07/09 08:16:07;;;;;;;0.50;0.40;;;;;;;;;;5086856;28;20089;-59
2021/07/09 08:18:34;;;;;;;0.50;0.30;;;;;;;;;;5077156;28;20067;-59
2021/07/09 08:21:01;;;;;;;1.08;0.60;;;;;;;;;;5081634;28;20078;-59
2021/07/09 08:23:28;;;;;;;0.30;0.30;;;;;;;;;;5077965;28;20040;-59
2021/07/09 08:25:56;;;;;;;0.60;0.40;;;;;;;;;;5090404;28;20131;-59
2021/07/09 08:28:24;;;;;;;0.40;0.40;;;;;;;;;;5085461;28;20123;-59
2021/07/09 08:30:51;;;;;;;0.57;0.40;;;;;;;;;;5074391;28;20486;-60
2021/07/09 08:33:17;;;;;;;0.60;0.50;;;;;;;;;;5081854;28;20082;-59
2021/07/09 08:35:44;;;;;;;1.45;0.50;;;;;;;;;;5069376;28;20036;-59
2021/07/09 08:38:11;;;;;;;0.30;0.30;;;;;;;;;;5091127;28;20059;-59
2021/07/09 08:40:47;;;;;;;1.17;0.70;;;;;;;;;;5088626;28;20091;-59
2021/07/09 08:43:30;;;;;;;0.40;0.40;;;;;;;;;;5087350;28;20034;-59
2021/07/09 08:45:57;;;;;;;0.30;0.30;;;;;;;;;;5075499;28;20128;-59
2021/07/09 08:48:25;;;;;;;0.40;0.30;;;;;;;;;;5087509;28;20066;-59
2021/07/09 08:50:53;;;;;;;0.30;0.30;;;;;;;;;;5087264;28;20044;-59
2021/07/09 08:53:20;;;;;;;0.30;0.30;;;;;;;;;;5076663;28;20044;-59
2021/07/09 08:55:47;;;;;;;2.05;0.30;;;;;;;;;;5081259;28;20036;-60
2021/07/09 08:58:13;;;;;;;0.50;0.38;;;;;;;;;;5075312;28;20045;-60
2021/07/09 09:00:43;;;;;;;0.93;0.30;;;;;;;;;;5085457;28;20454;-60
2021/07/09 09:03:20;;;;;;;1.45;0.30;;;;;;;;;;5076878;28;20032;-59
2021/07/09 09:05:47;;;;;;;0.38;0.30;;;;;;;;;;5064439;28;20135;-60
2021/07/09 09:08:16;;;;;;;1.15;0.38;;;;;;;;;;5089084;28;20036;-59
2021/07/09 09:10:50;;;;;;;1.08;0.60;;;;;;;;;;5088741;28;20083;-59
2021/07/09 09:13:21;;;;;;;2.30;0.30;;;;;;;;;;5082465;28;20443;-59
2021/07/09 09:15:57;;;;;;;2.13;0.40;;;;;;;;;;5079014;28;20048;-60
2021/07/09 09:18:37;;;;;;;0.35;0.35;;;;;;;;;;5077770;28;20032;-59
2021/07/09 09:21:09;;;;;;;1.45;0.32;;;;;;;;;;5087966;28;20055;-59
2021/07/09 09:23:37;;;;;;;0.82;0.30;;;;;;;;;;5087233;28;20032;-60
2021/07/09 09:26:05;;;;;;;1.63;0.40;;;;;;;;;;5099776;28;20515;-59
2021/07/09 09:28:36;;;;;;;1.80;0.30;;;;;;;;;;5094271;28;20085;-60
2021/07/09 09:31:02;;;;;;;1.48;0.40;;;;;;;;;;5070433;28;20040;-60
2021/07/09 09:33:31;;;;;;;0.40;0.30;;;;;;;;;;5090158;28;20040;-59
2021/07/09 09:35:59;;;;;;;1.33;0.30;;;;;;;;;;5089494;28;20048;-59
2021/07/09 09:38:29;;;;;;;1.92;0.35;;;;;;;;;;5078500;28;20063;-60
2021/07/09 09:40:56;;;;;;;0.50;0.30;;;;;;;;;;5085469;28;20043;-60
2021/07/09 09:43:26;;;;;;;1.23;0.38;;;;;;;;;;5072697;28;20037;-59
2021/07/09 09:46:10;;;;;;;0.70;0.30;;;;;;;;;;5080557;28;20086;-60
2021/07/09 09:48:47;;;;;;;1.33;0.30;;;;;;;;;;5083695;28;20071;-60
2021/07/09 09:51:29;;;;;;;0.60;0.32;;;;;;;;;;5078177;28;20533;-60
2021/07/09 09:54:06;;;;;;;0.30;0.30;;;;;;;;;;5090517;28;20718;-60
2021/07/09 09:56:40;;;;;;;0.30;0.30;;;;;;;;;;5089881;28;20039;-60
2021/07/09 09:59:16;;;;;;;0.75;0.20;;;;;;;;;;5092193;28;20078;-59
2021/07/09 10:01:50;;;;;;;1.80;0.30;;;;;;;;;;5092637;28;20097;-60
2021/07/09 10:04:17;;;;;;;1.60;0.82;;;;;;;;;;5088912;28;20101;-60
2021/07/09 10:06:44;;;;;;;1.95;0.30;;;;;;;;;;5094234;28;20111;-60
2021/07/09 10:09:12;;;;;;;2.15;0.30;;;;;;;;;;5090908;28;20032;-60
2021/07/09 10:11:39;;;;;;;0.77;0.30;;;;;;;;;;5075051;28;20036;-60
2021/07/09 10:14:17;;;;;;;0.35;0.30;;;;;;;;;;5093304;28;20040;-60
2021/07/09 10:16:45;;;;;;;0.22;0.20;;;;;;;;;;5092753;28;20028;-60
2021/07/09 10:19:18;;;;;;;0.32;0.20;;;;;;;;;;5087134;28;20479;-60
2021/07/09 10:21:45;;;;;;;0.30;0.30;;;;;;;;;;5092211;28;20070;-60
2021/07/09 10:24:14;;;;;;;3.78;0.57;;;;;;;;;;5091132;28;20059;-60
2021/07/09 10:26:42;;;;;;;2.53;0.30;;;;;;;;;;5089065;28;20130;-60
2021/07/09 10:29:13;;;;;;;0.98;0.32;;;;;;;;;;5090809;28;20044;-60
2021/07/09 10:31:41;;;;;;;0.50;0.30;;;;;;;;;;5090244;28;20074;-60
2021/07/09 10:34:26;;;;;;;1.15;0.82;;;;;;;;;;5092033;28;20456;-60
2021/07/09 10:36:54;;;;;;;2.42;0.40;;;;;;;;;;5090401;28;20869;-60
2021/07/09 10:39:35;;;;;;;1.20;0.20;;;;;;;;;;5067351;28;20062;-60
2021/07/09 10:42:20;;;;;;;0.88;0.30;;;;;;;;;;5088772;28;20687;-61
2021/07/09 10:44:59;;;;;;;0.73;0.25;;;;;;;;;;5087033;28;20101;-60
2021/07/09 10:47:36;;;;;;;0.70;0.20;;;;;;;;;;5091986;28;20123;-60
2021/07/09 10:50:07;;;;;;;0.90;0.30;;;;;;;;;;5086991;28;20487;-60
2021/07/09 10:52:42;;;;;;;1.27;0.68;;;;;;;;;;5075420;28;20089;-60
2021/07/09 10:55:25;;;;;;;0.50;0.30;;;;;;;;;;5085601;28;20094;-61
2021/07/09 10:58:07;;;;;;;0.30;0.20;;;;;;;;;;5079172;28;20036;-60
2021/07/09 11:00:55;;;;;;;0.75;0.20;;;;;;;;;;5073940;28;20078;-60
2021/07/09 11:03:24;;;;;;;1.98;0.35;;;;;;;;;;5079663;28;20127;-61
2021/07/09 11:06:00;;;;;;;0.93;0.20;;;;;;;;;;5087623;28;20064;-60
2021/07/09 11:08:34;;;;;;;0.73;0.30;;;;;;;;;;5085434;28;20412;-60
2021/07/09 11:11:13;;;;;;;0.35;0.20;;;;;;;;;;5087054;28;20048;-60
2021/07/09 11:13:46;;;;;;;0.40;0.30;;;;;;;;;;5083000;28;20464;-60
2021/07/09 11:16:18;;;;;;;0.40;0.28;;;;;;;;;;5073746;28;20071;-60
2021/07/09 11:18:57;;;;;;;2.05;0.30;;;;;;;;;;5086472;28;20049;-60
2021/07/09 11:21:32;;;;;;;0.55;0.20;;;;;;;;;;5090458;28;20074;-60
2021/07/09 11:24:06;;;;;;;0.30;0.20;;;;;;;;;;5091267;28;20059;-60
2021/07/09 11:26:40;;;;;;;0.30;0.20;;;;;;;;;;5085858;28;20512;-60
2021/07/09 11:29:19;;;;;;;2.67;0.20;;;;;;;;;;5077556;28;20036;-60
2021/07/09 11:31:52;;;;;;;0.47;0.40;;;;;;;;;;5090602;28;20097;-59
2021/07/09 11:34:20;;;;;;;1.33;0.30;;;;;;;;;;5086609;28;20036;-60
2021/07/09 11:37:13;;;;;;;2.05;0.22;;;;;;;;;;5089514;28;20052;-60
2021/07/09 11:39:44;;;;;;;1.65;0.30;;;;;;;;;;5089075;28;20519;-58
2021/07/09 11:42:11;;;;;;;0.82;0.20;;;;;;;;;;5077008;28;20400;-58
2021/07/09 11:44:40;;;;;;;0.80;0.20;;;;;;;;;;5090333;28;20044;-59
2021/07/09 11:47:08;;;;;;;1.13;0.20;;;;;;;;;;5092381;28;20047;-58
2021/07/09 11:49:36;;;;;;;0.30;0.30;;;;;;;;;;5084401;28;20622;-58
2021/07/09 11:52:07;;;;;;;1.40;0.30;;;;;;;;;;5084225;28;20044;-58
2021/07/09 11:54:36;;;;;;;0.73;0.20;;;;;;;;;;5085531;28;20046;-59
2021/07/09 11:57:07;;;;;;;0.85;0.20;;;;;;;;;;5072892;28;20056;-59
2021/07/09 11:59:35;;;;;;;0.60;0.60;;;;;;;;;;5081649;28;20120;-58
2021/07/09 12:02:06;;;;;;;0.20;0.20;;;;;;;;;;5080573;28;20028;-59
2021/07/09 12:04:36;;;;;;;2.65;0.20;;;;;;;;;;5089609;28;20038;-59
2021/07/09 12:07:23;;;;;;;1.50;0.20;;;;;;;;;;5094865;28;20063;-58
2021/07/09 12:09:51;;;;;;;1.13;0.30;;;;;;;;;;5079200;28;20093;-59
2021/07/09 12:12:21;;;;;;;0.20;0.20;;;;;;;;;;5083416;28;20076;-59
2021/07/09 12:14:55;;;;;;;1.50;0.20;;;;;;;;;;5089907;28;20044;-58
2021/07/09 12:17:22;;;;;;;0.20;0.20;;;;;;;;;;5086822;28;20060;-58
2021/07/09 12:20:09;;;;;;;1.10;0.40;;;;;;;;;;5090247;28;20036;-58
2021/07/09 12:22:38;;;;;;;0.35;0.28;;;;;;;;;;5086543;28;20511;-59
2021/07/09 12:25:07;;;;;;;6.55;0.20;;;;;;;;;;5075288;28;20479;-58
2021/07/09 12:27:35;;;;;;;0.55;0.20;;;;;;;;;;5089170;28;20123;-58
2021/07/09 12:30:07;;;;;;;1.52;0.20;;;;;;;;;;5090683;28;20063;-58
2021/07/09 12:32:41;;;;;;;8.85;0.20;;;;;;;;;;5072241;28;20051;-59
2021/07/09 12:35:08;;;;;;;3.83;0.20;;;;;;;;;;5088094;28;20092;-58
2021/07/09 12:37:35;;;;;;;2.28;0.45;;;;;;;;;;5088491;28;20550;-58
2021/07/09 12:40:13;;;;;;;2.30;0.20;;;;;;;;;;5092154;28;20063;-44
2021/07/09 12:42:39;;;;;;;1.27;0.28;;;;;;;;;;5092883;28;20090;-44
2021/07/09 12:45:07;;;;;;;1.20;0.20;;;;;;;;;;5107296;28;20065;-42
2021/07/09 12:47:34;;;;;;;2.53;0.20;;;;;;;;;;5083454;28;20082;-45
2021/07/09 12:50:13;;;;;;;0.40;0.20;;;;;;;;;;5081716;28;20033;-43
2021/07/09 12:52:40;;;;;;;2.38;0.17;;;;;;;;;;5074709;28;20044;-43
2021/07/09 12:55:27;;;;;;;1.30;0.20;;;;;;;;;;5085598;28;20067;-43
2021/07/09 12:57:53;;;;;;;0.10;0.10;;;;;;;;;;5080429;28;20113;-43
2021/07/09 13:00:40;;;;;;;1.70;0.20;;;;;;;;;;5075500;28;20044;-46
2021/07/09 13:03:07;;;;;;;0.17;0.10;;;;;;;;;;5086353;28;20982;-43
2021/07/09 13:05:33;;;;;;;0.73;0.20;;;;;;;;;;5083453;28;20127;-45
2021/07/09 13:08:07;;;;;;;4.68;0.25;;;;;;;;;;5090214;28;20535;-44
2021/07/09 13:10:33;;;;;;;2.53;0.43;;;;;;;;;;5087959;28;20036;-43
2021/07/09 13:13:19;;;;;;;0.25;0.20;;;;;;;;;;5071222;28;20127;-44
2021/07/09 13:15:59;;;;;;;0.20;0.20;;;;;;;;;;5088664;28;20040;-44
2021/07/09 13:18:27;;;;;;;0.20;0.10;;;;;;;;;;5087350;28;20044;-43
2021/07/09 13:20:58;;;;;;;0.20;0.20;;;;;;;;;;5089852;28;20453;-43
2021/07/09 13:23:25;;;;;;;0.17;0.17;;;;;;;;;;5087578;28;20123;-43
2021/07/09 13:26:02;;;;;;;3.63;0.20;;;;;;;;;;5088254;28;20075;-46
2021/07/09 13:28:36;;;;;;;0.35;0.20;;;;;;;;;;5077028;28;20055;-44
2021/07/09 13:31:03;;;;;;;0.40;0.10;;;;;;;;;;5084839;28;20070;-45
2021/07/09 13:33:37;;;;;;;0.68;0.10;;;;;;;;;;5083331;28;20105;-46
2021/07/09 13:36:04;;;;;;;0.10;0.10;;;;;;;;;;5093101;28;20048;-46
2021/07/09 13:38:31;;;;;;;0.55;0.20;;;;;;;;;;5092602;28;20511;-45
2021/07/09 13:40:58;;;;;;;0.43;0.20;;;;;;;;;;5089636;28;20044;-46
2021/07/09 13:43:24;;;;;;;0.43;0.20;;;;;;;;;;5090851;28;20472;-44
2021/07/09 13:45:52;;;;;;;0.93;0.10;;;;;;;;;;5091969;28;20071;-45
2021/07/09 13:48:19;;;;;;;1.85;0.20;;;;;;;;;;5084983;28;20044;-45
2021/07/09 13:50:48;;;;;;;1.05;0.10;;;;;;;;;;5069199;28;20043;-47
2021/07/09 13:53:14;;;;;;;0.10;0.10;;;;;;;;;;5076999;28;20438;-45
2021/07/09 13:55:41;;;;;;;0.10;0.10;;;;;;;;;;5089881;28;20142;-47
2021/07/09 13:58:08;;;;;;;0.20;0.10;;;;;;;;;;5090758;28;20131;-44
2021/07/09 14:00:35;;;;;;;0.77;0.20;;;;;;;;;;5093798;28;20055;-43
2021/07/09 14:03:01;;;;;;;0.20;0.10;;;;;;;;;;5090971;28;20103;-45
2021/07/09 14:05:31;;;;;;;0.10;0.10;;;;;;;;;;5107490;28;20519;-45
2021/07/09 14:07:58;;;;;;;0.10;0.10;;;;;;;;;;5087932;28;20060;-44
2021/07/09 14:10:25;;;;;;;0.43;0.10;;;;;;;;;;5090219;28;20023;-45
2021/07/09 14:12:52;;;;;;;0.95;0.10;;;;;;;;;;5091613;28;20036;-44
2021/07/09 14:15:30;;;;;;;0.20;0.20;;;;;;;;;;5090639;28;20503;-44
2021/07/09 14:17:58;;;;;;;0.20;0.10;;;;;;;;;;5074715;28;20044;-45
2021/07/09 14:20:25;;;;;;;0.13;0.13;;;;;;;;;;5092538;28;20109;-44
2021/07/09 14:22:52;;;;;;;0.10;0.10;;;;;;;;;;5091699;28;20484;-45
2021/07/09 14:25:19;;;;;;;0.10;0.10;;;;;;;;;;5080362;28;20059;-45
2021/07/09 14:27:45;;;;;;;0.10;0.10;;;;;;;;;;5092182;28;20457;-46
2021/07/09 14:30:12;;;;;;;1.77;0.15;;;;;;;;;;5090763;28;20380;-46
2021/07/09 14:32:39;;;;;;;0.10;0.10;;;;;;;;;;5092609;28;20132;-47
2021/07/09 14:35:06;;;;;;;2.47;0.10;;;;;;;;;;5091111;28;20118;-43
2021/07/09 14:37:33;;;;;;;0.20;0.20;;;;;;;;;;5082309;28;20476;-45
2021/07/09 14:39:59;;;;;;;0.47;0.20;;;;;;;;;;5089563;28;20040;-46
2021/07/09 14:42:26;;;;;;;0.10;0.10;;;;;;;;;;5088163;28;20094;-47
2021/07/09 14:44:54;;;;;;;1.67;0.20;;;;;;;;;;5100637;28;20040;-43
2021/07/09 14:47:20;;;;;;;1.20;0.15;;;;;;;;;;5090499;28;20032;-43
2021/07/09 14:49:47;;;;;;;0.13;0.10;;;;;;;;;;5076500;28;20101;-44
2021/07/09 14:52:22;;;;;;;0.10;0.10;;;;;;;;;;5088274;28;20358;-45
2021/07/09 14:54:49;;;;;;;0.10;0.10;;;;;;;;;;5087168;28;20169;-44